sensor_id;sensor_type;location;lat;lon;timestamp;temperature;humidity
35363;DHT22;21463;47.480;8.214;2023-08-07T00:00:22;21.00;51.30
35363;DHT22;21463;47.480;8.214;2023-08-07T00:01:26;20.90;51.30
35363;DHT22;21463;47.480;8.214;2023-08-07T00:02:30;21.00;51.30
35363;DHT22;21463;47.480;8.214;2023-08-07T00:03:33;21.00;51.40
35363;DHT22;21463;47.480;8.214;2023-08-07T00:04:38;21.00;51.30
35363;DHT22;21463;47.480;8.214;2023-08-07T00:05:40;21.00;51.30
35363;DHT22;21463;47.480;8.214;2023-08-07T00:06:43;21.00;51.30
35363;DHT22;21463;47.480;8.214;2023-08-07T00:07:45;21.00;51.30
35363;DHT22;21463;47.480;8.214;2023-08-07T00:08:49;21.00;51.30
35363;DHT22;21463;47.480;8.214;2023-08-07T00:09:56;21.00;51.30
35363;DHT22;21463;47.480;8.214;2023-08-07T00:11:05;21.00;51.40
35363;DHT22;21463;47.480;8.214;2023-08-07T00:12:08;21.00;51.40
35363;DHT22;21463;47.480;8.214;2023-08-07T00:13:10;21.00;51.40
35363;DHT22;21463;47.480;8.214;2023-08-07T00:14:13;21.00;51.40
35363;DHT22;21463;47.480;8.214;2023-08-07T00:15:17;21.00;51.40
35363;DHT22;21463;47.480;8.214;2023-08-07T00:16:20;21.00;51.40
35363;DHT22;21463;47.480;8.214;2023-08-07T00:17:23;21.00;51.50
35363;DHT22;21463;47.480;8.214;2023-08-07T00:18:27;21.00;51.50
35363;DHT22;21463;47.480;8.214;2023-08-07T00:19:31;20.90;51.40
35363;DHT22;21463;47.480;8.214;2023-08-07T00:20:35;21.00;51.40
35363;DHT22;21463;47.480;8.214;2023-08-07T00:21:37;21.00;51.40
35363;DHT22;21463;47.480;8.214;2023-08-07T00:22:42;21.00;51.40
35363;DHT22;21463;47.480;8.214;2023-08-07T00:23:46;21.00;51.40
35363;DHT22;21463;47.480;8.214;2023-08-07T00:24:52;21.00;51.40
35363;DHT22;21463;47.480;8.214;2023-08-07T00:26:11;20.90;51.40
35363;DHT22;21463;47.480;8.214;2023-08-07T00:27:14;21.00;51.40
35363;DHT22;21463;47.480;8.214;2023-08-07T00:28:17;20.90;51.40
35363;DHT22;21463;47.480;8.214;2023-08-07T00:29:20;20.90;51.40
35363;DHT22;21463;47.480;8.214;2023-08-07T00:30:23;21.00;51.40
35363;DHT22;21463;47.480;8.214;2023-08-07T00:31:25;21.00;51.50
35363;DHT22;21463;47.480;8.214;2023-08-07T00:32:29;21.00;51.60
35363;DHT22;21463;47.480;8.214;2023-08-07T00:33:34;21.00;51.50
35363;DHT22;21463;47.480;8.214;2023-08-07T00:34:39;21.00;51.60
35363;DHT22;21463;47.480;8.214;2023-08-07T00:35:42;21.00;51.50
35363;DHT22;21463;47.480;8.214;2023-08-07T00:36:45;20.90;51.50
35363;DHT22;21463;47.480;8.214;2023-08-07T00:37:50;20.90;51.50
35363;DHT22;21463;47.480;8.214;2023-08-07T00:38:54;21.00;51.50
35363;DHT22;21463;47.480;8.214;2023-08-07T00:39:57;20.90;51.40
35363;DHT22;21463;47.480;8.214;2023-08-07T00:41:02;21.00;51.40
35363;DHT22;21463;47.480;8.214;2023-08-07T00:42:05;21.00;51.40
35363;DHT22;21463;47.480;8.214;2023-08-07T00:43:08;21.00;51.40
35363;DHT22;21463;47.480;8.214;2023-08-07T00:44:11;21.00;51.60
35363;DHT22;21463;47.480;8.214;2023-08-07T00:45:16;21.00;51.50
35363;DHT22;21463;47.480;8.214;2023-08-07T00:46:21;21.00;52.10
35363;DHT22;21463;47.480;8.214;2023-08-07T00:47:29;21.00;51.50
35363;DHT22;21463;47.480;8.214;2023-08-07T00:48:33;21.00;52.10
35363;DHT22;21463;47.480;8.214;2023-08-07T00:49:36;21.00;51.60
35363;DHT22;21463;47.480;8.214;2023-08-07T00:50:39;21.00;51.50
35363;DHT22;21463;47.480;8.214;2023-08-07T00:51:48;21.00;51.50
35363;DHT22;21463;47.480;8.214;2023-08-07T00:52:51;21.00;51.50
35363;DHT22;21463;47.480;8.214;2023-08-07T00:53:56;21.00;51.50
35363;DHT22;21463;47.480;8.214;2023-08-07T00:55:00;21.00;51.50
35363;DHT22;21463;47.480;8.214;2023-08-07T00:56:03;21.00;51.50
35363;DHT22;21463;47.480;8.214;2023-08-07T00:57:10;21.00;51.60
35363;DHT22;21463;47.480;8.214;2023-08-07T00:58:14;21.00;51.50
35363;DHT22;21463;47.480;8.214;2023-08-07T00:59:23;21.00;51.50
35363;DHT22;21463;47.480;8.214;2023-08-07T01:00:28;21.00;51.60
35363;DHT22;21463;47.480;8.214;2023-08-07T01:01:32;21.00;51.60
35363;DHT22;21463;47.480;8.214;2023-08-07T01:02:38;21.00;51.60
35363;DHT22;21463;47.480;8.214;2023-08-07T01:03:48;20.90;51.60
35363;DHT22;21463;47.480;8.214;2023-08-07T01:04:52;21.00;51.60
35363;DHT22;21463;47.480;8.214;2023-08-07T01:05:58;21.00;51.70
35363;DHT22;21463;47.480;8.214;2023-08-07T01:07:02;21.00;51.70
35363;DHT22;21463;47.480;8.214;2023-08-07T01:08:08;21.00;51.60
35363;DHT22;21463;47.480;8.214;2023-08-07T01:09:11;21.00;51.60
35363;DHT22;21463;47.480;8.214;2023-08-07T01:10:14;21.00;51.60
35363;DHT22;21463;47.480;8.214;2023-08-07T01:12:42;21.00;51.60
35363;DHT22;21463;47.480;8.214;2023-08-07T01:14:02;21.00;51.60
35363;DHT22;21463;47.480;8.214;2023-08-07T01:15:12;20.90;51.60
35363;DHT22;21463;47.480;8.214;2023-08-07T01:16:18;21.00;51.70
35363;DHT22;21463;47.480;8.214;2023-08-07T01:17:23;21.00;51.70
35363;DHT22;21463;47.480;8.214;2023-08-07T01:18:27;21.00;51.70
35363;DHT22;21463;47.480;8.214;2023-08-07T01:19:31;21.00;51.70
35363;DHT22;21463;47.480;8.214;2023-08-07T01:20:36;21.00;51.70
35363;DHT22;21463;47.480;8.214;2023-08-07T01:21:44;21.00;51.70
35363;DHT22;21463;47.480;8.214;2023-08-07T01:22:47;21.00;51.70
35363;DHT22;21463;47.480;8.214;2023-08-07T01:23:52;21.00;51.80
35363;DHT22;21463;47.480;8.214;2023-08-07T01:24:55;21.00;51.80
35363;DHT22;21463;47.480;8.214;2023-08-07T01:25:58;21.00;51.90
35363;DHT22;21463;47.480;8.214;2023-08-07T01:28:38;21.00;51.80
35363;DHT22;21463;47.480;8.214;2023-08-07T01:30:02;21.00;51.80
35363;DHT22;21463;47.480;8.214;2023-08-07T01:31:11;20.90;51.80
35363;DHT22;21463;47.480;8.214;2023-08-07T01:32:29;20.90;51.70
35363;DHT22;21463;47.480;8.214;2023-08-07T01:33:34;21.00;51.80
35363;DHT22;21463;47.480;8.214;2023-08-07T01:34:40;20.90;51.80
35363;DHT22;21463;47.480;8.214;2023-08-07T01:35:49;21.00;51.90
35363;DHT22;21463;47.480;8.214;2023-08-07T01:36:54;21.00;51.90
35363;DHT22;21463;47.480;8.214;2023-08-07T01:37:59;21.00;51.90
35363;DHT22;21463;47.480;8.214;2023-08-07T01:39:03;21.00;51.90
35363;DHT22;21463;47.480;8.214;2023-08-07T01:40:09;20.90;51.80
35363;DHT22;21463;47.480;8.214;2023-08-07T01:41:13;21.00;51.90
35363;DHT22;21463;47.480;8.214;2023-08-07T01:42:19;21.00;52.00
35363;DHT22;21463;47.480;8.214;2023-08-07T01:43:21;21.00;51.90
35363;DHT22;21463;47.480;8.214;2023-08-07T01:44:25;21.00;51.90
35363;DHT22;21463;47.480;8.214;2023-08-07T01:45:28;21.00;51.90
35363;DHT22;21463;47.480;8.214;2023-08-07T01:46:34;20.90;51.80
35363;DHT22;21463;47.480;8.214;2023-08-07T01:47:39;21.00;51.80
35363;DHT22;21463;47.480;8.214;2023-08-07T01:48:43;21.00;51.90
35363;DHT22;21463;47.480;8.214;2023-08-07T01:49:47;22.10;52.50
35363;DHT22;21463;47.480;8.214;2023-08-07T01:50:49;21.00;51.90
35363;DHT22;21463;47.480;8.214;2023-08-07T01:51:52;21.00;51.90
35363;DHT22;21463;47.480;8.214;2023-08-07T01:52:56;21.00;52.00
35363;DHT22;21463;47.480;8.214;2023-08-07T01:53:59;20.90;51.80
35363;DHT22;21463;47.480;8.214;2023-08-07T01:55:05;21.00;51.90
35363;DHT22;21463;47.480;8.214;2023-08-07T01:56:10;21.00;52.00
35363;DHT22;21463;47.480;8.214;2023-08-07T01:57:13;21.00;52.00
35363;DHT22;21463;47.480;8.214;2023-08-07T01:58:16;21.00;52.00
35363;DHT22;21463;47.480;8.214;2023-08-07T01:59:19;20.90;51.90
35363;DHT22;21463;47.480;8.214;2023-08-07T02:00:25;21.00;51.90
35363;DHT22;21463;47.480;8.214;2023-08-07T02:01:30;21.00;51.90
35363;DHT22;21463;47.480;8.214;2023-08-07T02:02:33;21.00;52.00
35363;DHT22;21463;47.480;8.214;2023-08-07T02:03:50;21.00;52.00
35363;DHT22;21463;47.480;8.214;2023-08-07T02:04:56;21.00;52.00
35363;DHT22;21463;47.480;8.214;2023-08-07T02:06:01;21.00;51.90
35363;DHT22;21463;47.480;8.214;2023-08-07T02:07:06;21.00;52.00
35363;DHT22;21463;47.480;8.214;2023-08-07T02:08:09;21.00;52.00
35363;DHT22;21463;47.480;8.214;2023-08-07T02:09:11;21.00;52.10
35363;DHT22;21463;47.480;8.214;2023-08-07T02:10:14;21.00;52.60
35363;DHT22;21463;47.480;8.214;2023-08-07T02:11:20;21.00;52.10
35363;DHT22;21463;47.480;8.214;2023-08-07T02:12:24;21.00;52.00
35363;DHT22;21463;47.480;8.214;2023-08-07T02:13:31;21.00;52.60
35363;DHT22;21463;47.480;8.214;2023-08-07T02:14:48;21.00;52.10
35363;DHT22;21463;47.480;8.214;2023-08-07T02:15:52;21.00;52.10
35363;DHT22;21463;47.480;8.214;2023-08-07T02:16:55;21.00;52.10
35363;DHT22;21463;47.480;8.214;2023-08-07T02:17:59;21.00;52.20
35363;DHT22;21463;47.480;8.214;2023-08-07T02:19:03;20.90;52.10
35363;DHT22;21463;47.480;8.214;2023-08-07T02:20:08;21.00;52.10
35363;DHT22;21463;47.480;8.214;2023-08-07T02:21:14;21.00;52.10
35363;DHT22;21463;47.480;8.214;2023-08-07T02:22:18;21.00;52.60
35363;DHT22;21463;47.480;8.214;2023-08-07T02:23:20;21.00;52.20
35363;DHT22;21463;47.480;8.214;2023-08-07T02:24:23;21.00;52.10
35363;DHT22;21463;47.480;8.214;2023-08-07T02:25:25;21.00;52.20
35363;DHT22;21463;47.480;8.214;2023-08-07T02:26:31;21.00;52.10
35363;DHT22;21463;47.480;8.214;2023-08-07T02:27:34;21.00;52.20
35363;DHT22;21463;47.480;8.214;2023-08-07T02:28:38;21.00;52.20
35363;DHT22;21463;47.480;8.214;2023-08-07T02:29:41;21.00;52.10
35363;DHT22;21463;47.480;8.214;2023-08-07T02:30:45;21.00;52.20
35363;DHT22;21463;47.480;8.214;2023-08-07T02:31:50;21.00;52.10
35363;DHT22;21463;47.480;8.214;2023-08-07T02:32:58;20.90;52.10
35363;DHT22;21463;47.480;8.214;2023-08-07T02:34:01;21.00;52.20
35363;DHT22;21463;47.480;8.214;2023-08-07T02:35:05;21.00;52.20
35363;DHT22;21463;47.480;8.214;2023-08-07T02:36:23;21.00;52.20
35363;DHT22;21463;47.480;8.214;2023-08-07T02:37:29;21.00;52.20
35363;DHT22;21463;47.480;8.214;2023-08-07T02:38:34;21.00;52.20
35363;DHT22;21463;47.480;8.214;2023-08-07T02:39:38;21.00;52.20
35363;DHT22;21463;47.480;8.214;2023-08-07T02:40:40;21.00;52.20
35363;DHT22;21463;47.480;8.214;2023-08-07T02:41:44;21.00;52.20
35363;DHT22;21463;47.480;8.214;2023-08-07T02:42:47;21.00;52.20
35363;DHT22;21463;47.480;8.214;2023-08-07T02:43:50;21.00;52.20
35363;DHT22;21463;47.480;8.214;2023-08-07T02:44:58;21.00;52.20
35363;DHT22;21463;47.480;8.214;2023-08-07T02:46:00;21.00;52.20
35363;DHT22;21463;47.480;8.214;2023-08-07T02:47:02;21.00;52.20
35363;DHT22;21463;47.480;8.214;2023-08-07T02:48:05;21.00;52.30
35363;DHT22;21463;47.480;8.214;2023-08-07T02:49:09;21.00;52.20
35363;DHT22;21463;47.480;8.214;2023-08-07T02:50:12;21.00;52.30
35363;DHT22;21463;47.480;8.214;2023-08-07T02:51:16;21.00;52.20
35363;DHT22;21463;47.480;8.214;2023-08-07T02:52:20;21.00;52.30
35363;DHT22;21463;47.480;8.214;2023-08-07T02:53:22;21.00;52.30
35363;DHT22;21463;47.480;8.214;2023-08-07T02:54:25;21.00;52.20
35363;DHT22;21463;47.480;8.214;2023-08-07T02:55:27;21.00;52.30
35363;DHT22;21463;47.480;8.214;2023-08-07T02:56:30;21.00;52.30
35363;DHT22;21463;47.480;8.214;2023-08-07T02:57:33;21.00;52.30
35363;DHT22;21463;47.480;8.214;2023-08-07T02:58:36;21.00;52.30
35363;DHT22;21463;47.480;8.214;2023-08-07T02:59:53;21.00;52.30
35363;DHT22;21463;47.480;8.214;2023-08-07T03:01:20;21.00;52.30
35363;DHT22;21463;47.480;8.214;2023-08-07T03:02:21;21.00;52.30
35363;DHT22;21463;47.480;8.214;2023-08-07T03:03:23;21.00;52.30
35363;DHT22;21463;47.480;8.214;2023-08-07T03:04:29;20.90;52.30
35363;DHT22;21463;47.480;8.214;2023-08-07T03:05:36;21.00;52.30
35363;DHT22;21463;47.480;8.214;2023-08-07T03:06:38;21.00;52.30
35363;DHT22;21463;47.480;8.214;2023-08-07T03:07:41;21.00;52.30
35363;DHT22;21463;47.480;8.214;2023-08-07T03:08:48;21.00;52.30
35363;DHT22;21463;47.480;8.214;2023-08-07T03:09:51;21.00;52.30
35363;DHT22;21463;47.480;8.214;2023-08-07T03:10:56;21.00;52.40
35363;DHT22;21463;47.480;8.214;2023-08-07T03:12:02;21.00;52.30
35363;DHT22;21463;47.480;8.214;2023-08-07T03:13:06;21.00;52.30
35363;DHT22;21463;47.480;8.214;2023-08-07T03:14:08;21.00;52.40
35363;DHT22;21463;47.480;8.214;2023-08-07T03:15:11;21.00;52.30
35363;DHT22;21463;47.480;8.214;2023-08-07T03:16:15;21.00;52.30
35363;DHT22;21463;47.480;8.214;2023-08-07T03:17:18;21.00;52.40
35363;DHT22;21463;47.480;8.214;2023-08-07T03:18:21;21.00;52.30
35363;DHT22;21463;47.480;8.214;2023-08-07T03:19:23;21.00;52.30
35363;DHT22;21463;47.480;8.214;2023-08-07T03:20:26;21.20;52.40
35363;DHT22;21463;47.480;8.214;2023-08-07T03:21:33;21.00;52.30
35363;DHT22;21463;47.480;8.214;2023-08-07T03:22:36;21.00;52.30
35363;DHT22;21463;47.480;8.214;2023-08-07T03:23:39;21.00;52.30
35363;DHT22;21463;47.480;8.214;2023-08-07T03:24:46;21.00;52.30
35363;DHT22;21463;47.480;8.214;2023-08-07T03:25:50;21.00;52.30
35363;DHT22;21463;47.480;8.214;2023-08-07T03:26:57;21.00;52.30
35363;DHT22;21463;47.480;8.214;2023-08-07T03:28:02;21.00;52.30
35363;DHT22;21463;47.480;8.214;2023-08-07T03:29:06;21.00;52.30
35363;DHT22;21463;47.480;8.214;2023-08-07T03:30:09;21.00;52.40
35363;DHT22;21463;47.480;8.214;2023-08-07T03:31:12;21.00;52.30
35363;DHT22;21463;47.480;8.214;2023-08-07T03:32:15;21.00;52.30
35363;DHT22;21463;47.480;8.214;2023-08-07T03:33:18;21.00;52.30
35363;DHT22;21463;47.480;8.214;2023-08-07T03:34:20;21.00;52.30
35363;DHT22;21463;47.480;8.214;2023-08-07T03:35:26;21.00;52.30
35363;DHT22;21463;47.480;8.214;2023-08-07T03:36:28;21.00;52.30
35363;DHT22;21463;47.480;8.214;2023-08-07T03:37:31;21.00;52.30
35363;DHT22;21463;47.480;8.214;2023-08-07T03:38:34;21.00;52.40
35363;DHT22;21463;47.480;8.214;2023-08-07T03:39:37;21.00;52.40
35363;DHT22;21463;47.480;8.214;2023-08-07T03:40:40;21.00;52.40
35363;DHT22;21463;47.480;8.214;2023-08-07T03:41:44;21.00;52.40
35363;DHT22;21463;47.480;8.214;2023-08-07T03:42:47;21.00;52.50
35363;DHT22;21463;47.480;8.214;2023-08-07T03:43:49;21.00;52.40
35363;DHT22;21463;47.480;8.214;2023-08-07T03:44:51;21.00;52.40
35363;DHT22;21463;47.480;8.214;2023-08-07T03:45:54;21.00;52.30
35363;DHT22;21463;47.480;8.214;2023-08-07T03:47:05;21.00;52.30
35363;DHT22;21463;47.480;8.214;2023-08-07T03:48:10;21.00;52.30
35363;DHT22;21463;47.480;8.214;2023-08-07T03:49:13;21.00;52.20
35363;DHT22;21463;47.480;8.214;2023-08-07T03:50:16;21.00;52.30
35363;DHT22;21463;47.480;8.214;2023-08-07T03:51:21;21.00;52.30
35363;DHT22;21463;47.480;8.214;2023-08-07T03:52:28;21.00;52.20
35363;DHT22;21463;47.480;8.214;2023-08-07T03:53:31;21.00;52.20
35363;DHT22;21463;47.480;8.214;2023-08-07T03:54:35;21.00;52.30
35363;DHT22;21463;47.480;8.214;2023-08-07T03:55:38;21.00;52.30
35363;DHT22;21463;47.480;8.214;2023-08-07T03:56:43;21.00;52.30
35363;DHT22;21463;47.480;8.214;2023-08-07T03:57:51;20.90;52.20
35363;DHT22;21463;47.480;8.214;2023-08-07T03:58:54;21.00;52.20
35363;DHT22;21463;47.480;8.214;2023-08-07T03:59:58;21.00;52.20
35363;DHT22;21463;47.480;8.214;2023-08-07T04:01:14;21.00;52.30
35363;DHT22;21463;47.480;8.214;2023-08-07T04:02:17;21.00;52.20
35363;DHT22;21463;47.480;8.214;2023-08-07T04:03:20;21.00;52.20
35363;DHT22;21463;47.480;8.214;2023-08-07T04:04:23;21.00;52.80
35363;DHT22;21463;47.480;8.214;2023-08-07T04:05:27;21.00;52.20
35363;DHT22;21463;47.480;8.214;2023-08-07T04:06:31;21.00;52.20
35363;DHT22;21463;47.480;8.214;2023-08-07T04:07:33;21.00;52.10
35363;DHT22;21463;47.480;8.214;2023-08-07T04:08:37;21.00;52.20
35363;DHT22;21463;47.480;8.214;2023-08-07T04:09:45;21.00;52.10
35363;DHT22;21463;47.480;8.214;2023-08-07T04:10:59;21.00;52.20
35363;DHT22;21463;47.480;8.214;2023-08-07T04:12:07;21.00;52.20
35363;DHT22;21463;47.480;8.214;2023-08-07T04:13:11;21.00;52.20
35363;DHT22;21463;47.480;8.214;2023-08-07T04:14:16;21.00;52.20
35363;DHT22;21463;47.480;8.214;2023-08-07T04:15:18;21.00;52.20
35363;DHT22;21463;47.480;8.214;2023-08-07T04:16:21;21.00;52.20
35363;DHT22;21463;47.480;8.214;2023-08-07T04:17:27;21.00;52.20
35363;DHT22;21463;47.480;8.214;2023-08-07T04:18:30;21.00;52.30
35363;DHT22;21463;47.480;8.214;2023-08-07T04:19:39;21.00;52.30
35363;DHT22;21463;47.480;8.214;2023-08-07T04:20:48;21.00;52.20
35363;DHT22;21463;47.480;8.214;2023-08-07T04:21:51;21.00;52.20
35363;DHT22;21463;47.480;8.214;2023-08-07T04:22:54;21.00;52.20
35363;DHT22;21463;47.480;8.214;2023-08-07T04:23:57;21.00;52.30
35363;DHT22;21463;47.480;8.214;2023-08-07T04:25:02;21.00;52.30
35363;DHT22;21463;47.480;8.214;2023-08-07T04:26:06;21.00;52.20
35363;DHT22;21463;47.480;8.214;2023-08-07T04:27:09;21.00;52.20
35363;DHT22;21463;47.480;8.214;2023-08-07T04:28:14;21.00;52.20
35363;DHT22;21463;47.480;8.214;2023-08-07T04:29:18;21.00;52.10
35363;DHT22;21463;47.480;8.214;2023-08-07T04:30:20;21.00;52.20
35363;DHT22;21463;47.480;8.214;2023-08-07T04:31:23;21.00;52.20
35363;DHT22;21463;47.480;8.214;2023-08-07T04:32:26;21.00;52.20
35363;DHT22;21463;47.480;8.214;2023-08-07T04:33:32;21.00;52.30
35363;DHT22;21463;47.480;8.214;2023-08-07T04:34:35;20.90;52.20
35363;DHT22;21463;47.480;8.214;2023-08-07T04:35:40;21.00;52.20
35363;DHT22;21463;47.480;8.214;2023-08-07T04:36:43;21.00;52.20
35363;DHT22;21463;47.480;8.214;2023-08-07T04:37:47;21.00;52.20
35363;DHT22;21463;47.480;8.214;2023-08-07T04:38:50;21.00;52.10
35363;DHT22;21463;47.480;8.214;2023-08-07T04:39:53;21.00;52.20
35363;DHT22;21463;47.480;8.214;2023-08-07T04:40:57;21.00;52.20
35363;DHT22;21463;47.480;8.214;2023-08-07T04:42:02;21.00;52.10
35363;DHT22;21463;47.480;8.214;2023-08-07T04:43:04;21.00;52.10
35363;DHT22;21463;47.480;8.214;2023-08-07T04:44:07;21.00;52.20
35363;DHT22;21463;47.480;8.214;2023-08-07T04:45:10;21.00;52.20
35363;DHT22;21463;47.480;8.214;2023-08-07T04:46:12;21.00;52.10
35363;DHT22;21463;47.480;8.214;2023-08-07T04:47:15;21.00;52.20
35363;DHT22;21463;47.480;8.214;2023-08-07T04:48:18;21.00;52.10
35363;DHT22;21463;47.480;8.214;2023-08-07T04:49:23;21.00;52.10
35363;DHT22;21463;47.480;8.214;2023-08-07T04:50:26;21.00;52.10
35363;DHT22;21463;47.480;8.214;2023-08-07T04:51:30;21.00;52.20
35363;DHT22;21463;47.480;8.214;2023-08-07T04:52:35;21.00;52.10
35363;DHT22;21463;47.480;8.214;2023-08-07T04:53:40;21.00;52.10
35363;DHT22;21463;47.480;8.214;2023-08-07T04:54:49;21.00;52.20
35363;DHT22;21463;47.480;8.214;2023-08-07T04:55:54;21.00;52.20
35363;DHT22;21463;47.480;8.214;2023-08-07T04:56:57;21.00;52.30
35363;DHT22;21463;47.480;8.214;2023-08-07T04:58:03;21.00;52.20
35363;DHT22;21463;47.480;8.214;2023-08-07T04:59:05;21.00;52.20
35363;DHT22;21463;47.480;8.214;2023-08-07T05:00:08;21.00;52.20
35363;DHT22;21463;47.480;8.214;2023-08-07T05:01:26;21.00;52.10
35363;DHT22;21463;47.480;8.214;2023-08-07T05:02:28;21.00;52.30
35363;DHT22;21463;47.480;8.214;2023-08-07T05:03:32;21.00;52.20
35363;DHT22;21463;47.480;8.214;2023-08-07T05:04:36;21.00;52.20
35363;DHT22;21463;47.480;8.214;2023-08-07T05:05:40;21.00;52.10
35363;DHT22;21463;47.480;8.214;2023-08-07T05:06:43;21.00;52.20
35363;DHT22;21463;47.480;8.214;2023-08-07T05:07:48;21.10;52.20
35363;DHT22;21463;47.480;8.214;2023-08-07T05:08:52;21.00;52.10
35363;DHT22;21463;47.480;8.214;2023-08-07T05:09:57;21.00;52.10
35363;DHT22;21463;47.480;8.214;2023-08-07T05:11:01;21.00;52.10
35363;DHT22;21463;47.480;8.214;2023-08-07T05:12:04;21.00;52.10
35363;DHT22;21463;47.480;8.214;2023-08-07T05:13:08;21.00;52.10
35363;DHT22;21463;47.480;8.214;2023-08-07T05:14:11;21.00;52.00
35363;DHT22;21463;47.480;8.214;2023-08-07T05:15:21;21.00;52.00
35363;DHT22;21463;47.480;8.214;2023-08-07T05:16:25;21.00;52.00
35363;DHT22;21463;47.480;8.214;2023-08-07T05:17:27;21.00;52.10
35363;DHT22;21463;47.480;8.214;2023-08-07T05:18:30;21.00;52.10
35363;DHT22;21463;47.480;8.214;2023-08-07T05:19:34;21.00;52.10
35363;DHT22;21463;47.480;8.214;2023-08-07T05:20:37;21.00;52.10
35363;DHT22;21463;47.480;8.214;2023-08-07T05:21:40;21.00;52.20
35363;DHT22;21463;47.480;8.214;2023-08-07T05:22:46;21.00;52.20
35363;DHT22;21463;47.480;8.214;2023-08-07T05:23:49;21.00;52.20
35363;DHT22;21463;47.480;8.214;2023-08-07T05:24:57;21.00;52.20
35363;DHT22;21463;47.480;8.214;2023-08-07T05:26:05;21.00;52.20
35363;DHT22;21463;47.480;8.214;2023-08-07T05:27:11;21.00;52.20
35363;DHT22;21463;47.480;8.214;2023-08-07T05:28:13;21.00;52.30
35363;DHT22;21463;47.480;8.214;2023-08-07T05:29:17;21.00;52.20
35363;DHT22;21463;47.480;8.214;2023-08-07T05:30:20;21.00;52.20
35363;DHT22;21463;47.480;8.214;2023-08-07T05:31:22;21.00;52.20
35363;DHT22;21463;47.480;8.214;2023-08-07T05:32:34;21.00;52.20
35363;DHT22;21463;47.480;8.214;2023-08-07T05:33:39;21.00;52.20
35363;DHT22;21463;47.480;8.214;2023-08-07T05:34:43;21.00;52.30
35363;DHT22;21463;47.480;8.214;2023-08-07T05:35:46;21.00;52.20
35363;DHT22;21463;47.480;8.214;2023-08-07T05:36:51;21.00;52.70
35363;DHT22;21463;47.480;8.214;2023-08-07T05:37:56;21.00;52.20
35363;DHT22;21463;47.480;8.214;2023-08-07T05:38:58;21.00;52.20
35363;DHT22;21463;47.480;8.214;2023-08-07T05:40:01;20.90;52.10
35363;DHT22;21463;47.480;8.214;2023-08-07T05:41:05;21.00;52.20
35363;DHT22;21463;47.480;8.214;2023-08-07T05:42:07;21.00;52.30
35363;DHT22;21463;47.480;8.214;2023-08-07T05:43:15;21.00;52.20
35363;DHT22;21463;47.480;8.214;2023-08-07T05:44:18;21.00;52.20
35363;DHT22;21463;47.480;8.214;2023-08-07T05:45:21;21.00;52.20
35363;DHT22;21463;47.480;8.214;2023-08-07T05:46:24;21.00;52.20
35363;DHT22;21463;47.480;8.214;2023-08-07T05:47:27;21.00;52.20
35363;DHT22;21463;47.480;8.214;2023-08-07T05:48:30;21.00;52.20
35363;DHT22;21463;47.480;8.214;2023-08-07T05:49:42;21.00;52.20
35363;DHT22;21463;47.480;8.214;2023-08-07T05:50:46;21.00;52.20
35363;DHT22;21463;47.480;8.214;2023-08-07T05:51:52;21.00;52.20
35363;DHT22;21463;47.480;8.214;2023-08-07T05:52:56;21.00;52.20
35363;DHT22;21463;47.480;8.214;2023-08-07T05:54:04;21.00;52.20
35363;DHT22;21463;47.480;8.214;2023-08-07T05:55:08;21.00;52.30
35363;DHT22;21463;47.480;8.214;2023-08-07T05:56:12;21.00;52.30
35363;DHT22;21463;47.480;8.214;2023-08-07T05:57:18;21.00;52.30
35363;DHT22;21463;47.480;8.214;2023-08-07T05:58:24;21.00;52.30
35363;DHT22;21463;47.480;8.214;2023-08-07T05:59:27;21.00;52.80
35363;DHT22;21463;47.480;8.214;2023-08-07T06:00:30;21.00;52.30
35363;DHT22;21463;47.480;8.214;2023-08-07T06:01:33;20.90;52.20
35363;DHT22;21463;47.480;8.214;2023-08-07T06:02:51;21.00;52.20
35363;DHT22;21463;47.480;8.214;2023-08-07T06:03:54;21.00;52.20
35363;DHT22;21463;47.480;8.214;2023-08-07T06:04:57;21.00;52.20
35363;DHT22;21463;47.480;8.214;2023-08-07T06:06:01;21.00;52.20
35363;DHT22;21463;47.480;8.214;2023-08-07T06:07:06;21.00;52.20
35363;DHT22;21463;47.480;8.214;2023-08-07T06:08:09;21.00;52.20
35363;DHT22;21463;47.480;8.214;2023-08-07T06:09:11;21.00;52.20
35363;DHT22;21463;47.480;8.214;2023-08-07T06:10:14;21.00;52.20
35363;DHT22;21463;47.480;8.214;2023-08-07T06:11:18;21.00;52.00
35363;DHT22;21463;47.480;8.214;2023-08-07T06:12:35;21.10;52.10
35363;DHT22;21463;47.480;8.214;2023-08-07T06:13:39;21.20;52.10
35363;DHT22;21463;47.480;8.214;2023-08-07T06:14:42;21.20;52.10
35363;DHT22;21463;47.480;8.214;2023-08-07T06:15:45;21.30;51.90
35363;DHT22;21463;47.480;8.214;2023-08-07T06:16:49;21.30;51.70
35363;DHT22;21463;47.480;8.214;2023-08-07T06:17:59;21.40;51.50
35363;DHT22;21463;47.480;8.214;2023-08-07T06:19:03;21.50;51.40
35363;DHT22;21463;47.480;8.214;2023-08-07T06:20:29;21.50;51.40
35363;DHT22;21463;47.480;8.214;2023-08-07T06:21:32;21.60;51.00
35363;DHT22;21463;47.480;8.214;2023-08-07T06:22:37;21.60;50.60
35363;DHT22;21463;47.480;8.214;2023-08-07T06:23:40;21.70;50.60
35363;DHT22;21463;47.480;8.214;2023-08-07T06:24:45;21.70;50.60
35363;DHT22;21463;47.480;8.214;2023-08-07T06:25:49;21.80;50.70
35363;DHT22;21463;47.480;8.214;2023-08-07T06:27:02;21.80;50.60
35363;DHT22;21463;47.480;8.214;2023-08-07T06:28:15;21.90;50.60
35363;DHT22;21463;47.480;8.214;2023-08-07T06:29:18;22.00;50.40
35363;DHT22;21463;47.480;8.214;2023-08-07T06:30:24;22.00;50.10
35363;DHT22;21463;47.480;8.214;2023-08-07T06:31:33;22.10;50.10
35363;DHT22;21463;47.480;8.214;2023-08-07T06:32:36;22.20;50.30
35363;DHT22;21463;47.480;8.214;2023-08-07T06:33:40;22.20;49.90
35363;DHT22;21463;47.480;8.214;2023-08-07T06:34:44;22.20;49.80
35363;DHT22;21463;47.480;8.214;2023-08-07T06:35:51;22.30;49.60
35363;DHT22;21463;47.480;8.214;2023-08-07T06:36:57;22.30;49.40
35363;DHT22;21463;47.480;8.214;2023-08-07T06:38:02;22.30;49.40
35363;DHT22;21463;47.480;8.214;2023-08-07T06:39:06;22.40;49.30
35363;DHT22;21463;47.480;8.214;2023-08-07T06:40:09;22.40;49.20
35363;DHT22;21463;47.480;8.214;2023-08-07T06:41:12;22.50;49.10
35363;DHT22;21463;47.480;8.214;2023-08-07T06:42:34;22.50;48.70
35363;DHT22;21463;47.480;8.214;2023-08-07T06:43:40;22.60;48.80
35363;DHT22;21463;47.480;8.214;2023-08-07T06:44:47;22.70;48.70
35363;DHT22;21463;47.480;8.214;2023-08-07T06:45:49;22.70;48.30
35363;DHT22;21463;47.480;8.214;2023-08-07T06:46:52;22.80;48.00
35363;DHT22;21463;47.480;8.214;2023-08-07T06:47:54;22.80;47.90
35363;DHT22;21463;47.480;8.214;2023-08-07T06:48:59;22.80;47.80
35363;DHT22;21463;47.480;8.214;2023-08-07T06:50:05;22.80;47.70
35363;DHT22;21463;47.480;8.214;2023-08-07T06:51:09;22.80;47.70
35363;DHT22;21463;47.480;8.214;2023-08-07T06:52:12;22.90;47.80